Time;durP1;ratioP1;P1;durP2;ratioP2;P2;SDS_P1;SDS_P2;PMS_P1;PMS_P2;Temp;Humidity;BMP_temperature;BMP_pressure;BME280_temperature;BME280_humidity;BME280_pressure;Samples;Min_cycle;Max_cycle;Signal;HPM_P1;HPM_P2
2024/01/12 00:00:44;;;;;;;9.95;1.13;;;2.30;99.90;;;;;;5034714;28;20040;-74
2024/01/12 00:03:10;;;;;;;2.85;0.93;;;2.30;99.90;;;;;;5036248;28;20036;-73
2024/01/12 00:05:36;;;;;;;1.00;0.68;;;2.30;99.90;;;;;;5020246;28;20048;-74
2024/01/12 00:08:03;;;;;;;2.10;0.80;;;2.30;99.90;;;;;;5036954;28;20032;-73
2024/01/12 00:10:28;;;;;;;3.63;1.13;;;2.30;99.90;;;;;;5035946;28;20075;-74
2024/01/12 00:12:54;;;;;;;2.08;1.23;;;2.30;99.90;;;;;;5033321;28;20461;-74
2024/01/12 00:15:20;;;;;;;5.05;0.93;;;2.30;99.90;;;;;;5019418;28;20044;-74
2024/01/12 00:17:46;;;;;;;0.65;0.55;;;2.30;99.90;;;;;;5035947;28;20072;-73
2024/01/12 00:20:12;;;;;;;11.18;1.35;;;2.30;99.90;;;;;;5036540;28;20049;-73
2024/01/12 00:22:38;;;;;;;5.38;0.80;;;2.30;99.90;;;;;;5035649;28;20047;-73
2024/01/12 00:25:04;;;;;;;0.90;0.82;;;2.30;99.90;;;;;;5019966;28;20041;-73
2024/01/12 00:27:30;;;;;;;5.47;1.27;;;2.30;99.90;;;;;;5034068;28;20036;-73
2024/01/12 00:29:56;;;;;;;5.85;0.70;;;2.30;99.90;;;;;;5035697;28;20423;-73
2024/01/12 00:32:21;;;;;;;1.45;0.50;;;2.30;99.90;;;;;;5036309;28;20048;-73
2024/01/12 00:34:47;;;;;;;3.88;1.05;;;2.30;99.90;;;;;;5019278;28;20036;-73
2024/01/12 00:37:13;;;;;;;2.78;0.77;;;2.20;99.90;;;;;;5019706;28;20098;-74
2024/01/12 00:39:39;;;;;;;7.32;0.95;;;2.20;99.90;;;;;;5035716;28;20411;-74
2024/01/12 00:42:05;;;;;;;7.80;1.27;;;2.20;99.90;;;;;;5036156;28;20563;-74
2024/01/12 00:44:31;;;;;;;3.22;0.73;;;2.30;99.90;;;;;;5036323;28;20032;-73
2024/01/12 00:46:57;;;;;;;5.05;0.73;;;2.20;99.90;;;;;;5023940;28;20036;-73
2024/01/12 00:49:23;;;;;;;1.65;0.80;;;2.20;99.90;;;;;;5036023;28;20041;-73
2024/01/12 00:51:49;;;;;;;2.15;0.88;;;2.20;99.90;;;;;;5018945;28;20036;-73
2024/01/12 00:54:15;;;;;;;8.70;1.30;;;2.20;99.90;;;;;;5019305;28;20040;-73
2024/01/12 00:56:41;;;;;;;0.63;0.52;;;2.20;99.90;;;;;;5019681;28;20396;-73
2024/01/12 00:59:07;;;;;;;4.00;1.00;;;2.20;99.90;;;;;;5035824;28;20522;-73
2024/01/12 01:01:34;;;;;;;1.50;1.08;;;2.20;99.90;;;;;;5035154;28;20047;-73
2024/01/12 01:04:04;;;;;;;4.03;0.82;;;2.20;99.90;;;;;;5018474;28;20539;-73
2024/01/12 01:06:30;;;;;;;1.90;0.70;;;2.20;99.90;;;;;;5019122;28;20056;-73
2024/01/12 01:08:57;;;;;;;6.75;1.02;;;2.10;99.90;;;;;;5033268;28;20044;-73
2024/01/12 01:11:22;;;;;;;7.72;1.00;;;2.10;99.90;;;;;;5034377;28;20053;-73
2024/01/12 01:13:49;;;;;;;6.10;1.25;;;2.10;99.90;;;;;;5034205;28;20190;-73
2024/01/12 01:16:15;;;;;;;2.45;1.10;;;2.10;99.90;;;;;;5032842;28;20151;-73
2024/01/12 01:18:40;;;;;;;4.85;1.05;;;2.10;99.90;;;;;;5035363;28;20053;-73
2024/01/12 01:21:06;;;;;;;1.98;1.00;;;2.10;99.90;;;;;;5027965;28;20056;-73
2024/01/12 01:23:33;;;;;;;1.27;0.60;;;2.10;99.90;;;;;;5034472;28;20029;-73
2024/01/12 01:25:59;;;;;;;4.60;0.73;;;2.10;99.90;;;;;;5018789;28;20063;-73
2024/01/12 01:28:25;;;;;;;3.58;0.88;;;2.20;99.90;;;;;;5017302;28;20543;-73
2024/01/12 01:30:50;;;;;;;1.05;0.68;;;2.10;99.90;;;;;;5052097;28;20052;-73
2024/01/12 01:33:16;;;;;;;4.43;0.85;;;2.20;99.90;;;;;;5034939;28;20044;-73
2024/01/12 01:35:42;;;;;;;3.22;0.73;;;2.20;99.90;;;;;;5030250;28;20036;-73
2024/01/12 01:38:08;;;;;;;1.08;0.60;;;2.20;99.90;;;;;;5035425;28;20048;-73
2024/01/12 01:40:36;;;;;;;3.93;1.00;;;2.20;99.90;;;;;;5035261;28;20114;-73
2024/01/12 01:43:09;;;;;;;2.35;0.93;;;2.20;99.90;;;;;;5020209;28;20039;-73
2024/01/12 01:45:36;;;;;;;3.67;1.45;;;2.20;99.90;;;;;;5033506;28;20041;-73
2024/01/12 01:48:06;;;;;;;6.57;0.95;;;2.20;99.90;;;;;;5034168;28;20032;-73
2024/01/12 01:50:33;;;;;;;1.88;0.88;;;2.20;99.90;;;;;;5030877;28;20040;-73
2024/01/12 01:52:59;;;;;;;8.68;1.85;;;2.20;99.90;;;;;;5034826;28;20045;-73
2024/01/12 01:55:28;;;;;;;1.13;0.50;;;2.10;99.90;;;;;;5017818;28;20124;-73
2024/01/12 01:57:55;;;;;;;6.70;0.82;;;2.10;99.90;;;;;;5034923;28;20063;-73
2024/01/12 02:00:21;;;;;;;2.65;0.93;;;2.10;99.90;;;;;;5036077;28;20125;-73
2024/01/12 02:02:48;;;;;;;6.95;0.85;;;2.10;99.90;;;;;;5032796;28;20052;-73
2024/01/12 02:05:14;;;;;;;2.10;0.60;;;2.10;99.90;;;;;;5033721;28;20041;-73
2024/01/12 02:07:42;;;;;;;2.40;0.82;;;2.10;99.90;;;;;;5034541;28;20033;-73
2024/01/12 02:10:09;;;;;;;3.05;0.68;;;2.00;99.90;;;;;;5034673;28;20116;-73
2024/01/12 02:12:36;;;;;;;0.85;0.82;;;2.00;99.90;;;;;;5033377;28;20048;-73
2024/01/12 02:15:02;;;;;;;7.78;1.33;;;2.00;99.90;;;;;;5034460;28;20046;-73
2024/01/12 02:17:28;;;;;;;2.83;1.00;;;2.00;99.90;;;;;;5034077;28;20057;-73
2024/01/12 02:19:59;;;;;;;7.80;1.13;;;1.90;99.90;;;;;;5033336;28;20102;-73
2024/01/12 02:22:25;;;;;;;2.30;0.95;;;1.90;99.90;;;;;;5034211;28;20045;-73
2024/01/12 02:24:51;;;;;;;3.13;1.40;;;1.90;99.90;;;;;;5034125;28;20036;-73
2024/01/12 02:27:17;;;;;;;3.15;1.00;;;1.90;99.90;;;;;;5031602;28;20115;-73
2024/01/12 02:29:44;;;;;;;0.60;0.47;;;1.90;99.90;;;;;;5017740;28;20619;-73
2024/01/12 02:32:10;;;;;;;0.68;0.60;;;1.80;99.90;;;;;;5034193;28;20094;-73
2024/01/12 02:34:36;;;;;;;4.95;1.05;;;1.80;99.90;;;;;;5033771;28;20131;-73
2024/01/12 02:37:02;;;;;;;3.40;1.75;;;1.90;99.90;;;;;;5033787;28;20048;-73
2024/01/12 02:39:27;;;;;;;5.97;1.13;;;1.80;99.90;;;;;;5034512;28;20045;-73
2024/01/12 02:41:57;;;;;;;1.00;0.70;;;1.80;99.90;;;;;;5033391;28;20509;-73
2024/01/12 02:44:26;;;;;;;1.58;1.17;;;1.80;99.90;;;;;;5034490;28;20048;-73
2024/01/12 02:46:52;;;;;;;2.03;0.88;;;1.80;99.90;;;;;;5034091;28;20033;-73
2024/01/12 02:49:18;;;;;;;2.58;1.38;;;1.80;99.90;;;;;;5033453;28;20119;-73
2024/01/12 02:51:45;;;;;;;3.00;1.33;;;1.80;99.90;;;;;;5036928;28;20127;-73
2024/01/12 02:54:11;;;;;;;1.70;1.02;;;1.70;99.90;;;;;;5017469;28;20086;-73
2024/01/12 02:56:37;;;;;;;1.40;0.95;;;1.70;99.90;;;;;;5033648;28;20119;-73
2024/01/12 02:59:03;;;;;;;1.83;0.98;;;1.70;99.90;;;;;;5033683;28;20069;-73
2024/01/12 03:01:29;;;;;;;1.63;1.10;;;1.70;99.90;;;;;;5033607;28;20052;-73
2024/01/12 03:03:54;;;;;;;3.75;1.42;;;1.70;99.90;;;;;;5032981;28;20088;-73
2024/01/12 03:06:21;;;;;;;2.75;0.90;;;1.60;99.90;;;;;;5033606;28;20049;-73
2024/01/12 03:08:47;;;;;;;6.60;1.83;;;1.60;99.90;;;;;;5033785;28;20539;-73
2024/01/12 03:11:12;;;;;;;3.53;1.08;;;1.60;99.90;;;;;;5033592;28;20037;-73
2024/01/12 03:13:38;;;;;;;2.05;1.15;;;1.60;99.90;;;;;;5032322;28;20045;-73
2024/01/12 03:16:04;;;;;;;2.63;1.00;;;1.60;99.90;;;;;;5033332;28;20049;-73
2024/01/12 03:18:32;;;;;;;3.67;0.75;;;1.60;99.90;;;;;;5033418;28;20049;-73
2024/01/12 03:20:58;;;;;;;1.35;0.80;;;1.60;99.90;;;;;;5033573;28;20048;-73
2024/01/12 03:23:24;;;;;;;3.17;1.35;;;1.60;99.90;;;;;;5016926;28;20052;-73
2024/01/12 03:25:50;;;;;;;1.15;1.05;;;1.60;99.90;;;;;;5033405;28;20032;-73
2024/01/12 03:28:16;;;;;;;4.57;0.75;;;1.60;99.90;;;;;;5027085;28;20048;-73
2024/01/12 03:30:42;;;;;;;2.00;1.17;;;1.60;99.90;;;;;;5049991;28;20063;-73
2024/01/12 03:33:08;;;;;;;1.40;0.73;;;1.50;99.90;;;;;;5033100;28;20478;-73
2024/01/12 03:35:35;;;;;;;4.57;1.08;;;1.50;99.90;;;;;;5036820;28;20047;-73
2024/01/12 03:38:02;;;;;;;6.72;1.20;;;1.50;99.90;;;;;;5033391;28;20338;-73
2024/01/12 03:40:28;;;;;;;7.07;1.45;;;1.50;99.90;;;;;;5016794;28;20080;-73
2024/01/12 03:42:54;;;;;;;5.25;1.13;;;1.60;99.90;;;;;;5033154;28;20516;-73
2024/01/12 03:45:20;;;;;;;3.35;1.02;;;1.50;99.90;;;;;;5033675;28;20120;-73
2024/01/12 03:47:46;;;;;;;1.25;0.73;;;1.50;99.90;;;;;;5033112;28;20545;-73
2024/01/12 03:50:12;;;;;;;4.80;1.52;;;1.50;99.90;;;;;;5032851;28;20536;-73
2024/01/12 03:52:38;;;;;;;5.18;1.30;;;1.60;99.90;;;;;;5032762;28;20083;-73
2024/01/12 03:55:04;;;;;;;4.93;1.25;;;1.50;99.90;;;;;;5033154;28;20128;-73
2024/01/12 03:57:30;;;;;;;5.90;1.10;;;1.50;99.90;;;;;;5033203;28;20127;-73
2024/01/12 03:59:56;;;;;;;5.55;1.30;;;1.50;99.90;;;;;;5033291;28;20116;-73
2024/01/12 04:02:21;;;;;;;1.65;1.08;;;1.40;99.90;;;;;;5033044;28;20037;-73
2024/01/12 04:04:47;;;;;;;1.67;1.17;;;1.40;99.90;;;;;;5033414;28;20473;-73
2024/01/12 04:07:13;;;;;;;1.33;1.15;;;1.40;99.90;;;;;;5032393;28;20482;-73
2024/01/12 04:09:40;;;;;;;2.72;1.02;;;1.30;99.90;;;;;;5035798;28;20040;-73
2024/01/12 04:12:07;;;;;;;1.60;1.05;;;1.20;99.90;;;;;;5036955;28;20056;-73
2024/01/12 04:14:33;;;;;;;2.67;1.25;;;1.20;99.90;;;;;;5036619;28;20056;-73
2024/01/12 04:16:58;;;;;;;2.28;1.20;;;1.10;99.90;;;;;;5036099;28;20049;-73
2024/01/12 04:19:24;;;;;;;5.72;1.10;;;1.10;99.90;;;;;;5036520;28;20048;-73
2024/01/12 04:21:50;;;;;;;5.35;1.23;;;1.00;99.90;;;;;;5036546;28;20052;-73
2024/01/12 04:24:16;;;;;;;0.98;0.93;;;0.90;99.90;;;;;;5036537;28;20041;-73
2024/01/12 04:26:42;;;;;;;8.75;1.13;;;0.90;99.90;;;;;;5035124;28;20047;-73
2024/01/12 04:29:08;;;;;;;1.20;1.00;;;0.90;99.90;;;;;;5046949;28;20497;-73
2024/01/12 04:31:39;;;;;;;2.65;1.10;;;0.80;99.90;;;;;;5038385;28;20036;-73
2024/01/12 04:34:05;;;;;;;4.68;1.20;;;0.90;99.90;;;;;;5019791;28;20041;-73
2024/01/12 04:36:31;;;;;;;2.45;1.65;;;0.90;99.90;;;;;;5036232;28;20106;-73
2024/01/12 04:38:57;;;;;;;1.58;1.10;;;1.00;99.90;;;;;;5032736;28;20048;-73
2024/01/12 04:41:23;;;;;;;2.13;1.25;;;1.00;99.90;;;;;;5019832;28;20095;-73
2024/01/12 04:43:49;;;;;;;3.53;1.20;;;1.00;99.90;;;;;;5036208;28;20431;-73
2024/01/12 04:46:14;;;;;;;4.13;1.65;;;1.00;99.90;;;;;;5036048;28;20110;-73
2024/01/12 04:48:40;;;;;;;3.53;1.85;;;1.00;99.90;;;;;;5033267;28;20397;-73
2024/01/12 04:51:06;;;;;;;2.08;1.52;;;1.10;99.90;;;;;;5035849;28;20468;-73
2024/01/12 04:53:32;;;;;;;2.38;1.10;;;1.10;99.90;;;;;;5036334;28;20045;-73
2024/01/12 04:55:58;;;;;;;3.33;1.45;;;1.10;99.90;;;;;;5035161;28;20040;-73
2024/01/12 04:58:23;;;;;;;2.72;1.90;;;1.20;99.90;;;;;;5034095;28;20124;-73
2024/01/12 05:00:49;;;;;;;2.72;1.45;;;1.20;99.90;;;;;;5018268;28;20049;-73
2024/01/12 05:03:15;;;;;;;4.13;1.90;;;1.20;99.90;;;;;;5035912;28;20090;-73
2024/01/12 05:05:41;;;;;;;2.33;1.80;;;1.30;99.90;;;;;;5035309;28;20033;-73
2024/01/12 05:08:07;;;;;;;2.97;1.90;;;1.30;99.90;;;;;;5035600;28;20072;-73
2024/01/12 05:10:32;;;;;;;4.72;1.80;;;1.30;99.90;;;;;;5035304;28;20041;-73
2024/01/12 05:12:59;;;;;;;6.43;1.60;;;1.40;99.90;;;;;;5035327;28;20045;-73
2024/01/12 05:15:25;;;;;;;2.55;1.58;;;1.40;99.90;;;;;;5035929;28;20049;-72
2024/01/12 05:17:50;;;;;;;2.53;1.90;;;1.40;99.90;;;;;;5035619;28;20473;-72
2024/01/12 05:20:16;;;;;;;2.22;1.45;;;1.40;99.90;;;;;;5017927;28;20064;-72
2024/01/12 05:22:42;;;;;;;3.35;1.48;;;1.40;99.90;;;;;;5018283;28;20076;-72
2024/01/12 05:25:08;;;;;;;5.90;1.88;;;1.50;99.90;;;;;;5035523;28;20119;-73
2024/01/12 05:27:34;;;;;;;1.85;1.40;;;1.50;99.90;;;;;;5032505;28;20041;-72
2024/01/12 05:30:00;;;;;;;7.63;1.73;;;1.50;99.90;;;;;;5034876;28;20033;-72
2024/01/12 05:32:26;;;;;;;4.30;1.40;;;1.60;99.90;;;;;;5018882;28;20043;-72
2024/01/12 05:34:51;;;;;;;4.57;2.53;;;1.60;99.90;;;;;;5039389;28;20041;-73
2024/01/12 05:37:17;;;;;;;3.92;1.88;;;1.60;99.90;;;;;;5035494;28;20044;-72
2024/01/12 05:39:43;;;;;;;1.45;0.93;;;1.70;99.90;;;;;;5032328;28;20427;-72
2024/01/12 05:42:09;;;;;;;2.83;1.92;;;1.70;99.90;;;;;;5034976;28;20043;-72
2024/01/12 05:44:35;;;;;;;3.65;2.15;;;1.70;99.90;;;;;;5035182;28;20041;-72
2024/01/12 05:47:02;;;;;;;4.63;2.00;;;1.70;99.90;;;;;;5032318;28;20044;-72
2024/01/12 05:49:28;;;;;;;2.65;1.35;;;1.70;99.90;;;;;;5034373;28;20051;-72
2024/01/12 05:51:53;;;;;;;2.40;1.25;;;1.70;99.90;;;;;;5017940;28;20037;-72
2024/01/12 05:54:20;;;;;;;3.38;1.67;;;1.70;99.90;;;;;;5018347;28;20056;-73
2024/01/12 05:56:45;;;;;;;6.20;2.30;;;1.80;99.90;;;;;;5034006;28;20068;-73
2024/01/12 05:59:11;;;;;;;3.42;2.03;;;1.80;99.90;;;;;;5034515;28;20041;-72
2024/01/12 06:01:37;;;;;;;7.85;1.98;;;1.80;99.90;;;;;;5034417;28;20037;-72
2024/01/12 06:04:03;;;;;;;3.17;1.95;;;1.80;99.90;;;;;;5035096;28;20040;-72
2024/01/12 06:06:29;;;;;;;3.42;1.83;;;1.90;99.90;;;;;;5034991;28;20033;-73
2024/01/12 06:08:55;;;;;;;2.90;2.22;;;1.90;99.90;;;;;;5034093;28;20112;-72
2024/01/12 06:11:21;;;;;;;4.57;2.47;;;1.90;99.90;;;;;;5033845;28;20045;-72
2024/01/12 06:13:46;;;;;;;7.50;2.30;;;1.90;99.90;;;;;;5034031;28;20075;-74
2024/01/12 06:16:12;;;;;;;3.25;1.60;;;1.90;99.90;;;;;;5034228;28;20135;-72
2024/01/12 06:18:38;;;;;;;2.83;1.92;;;1.90;99.90;;;;;;5034011;28;20049;-73
2024/01/12 06:21:04;;;;;;;2.85;1.27;;;1.90;99.90;;;;;;5033993;28;20098;-72
2024/01/12 06:23:30;;;;;;;6.38;2.03;;;1.90;99.90;;;;;;5034451;28;20044;-73
2024/01/12 06:25:56;;;;;;;3.53;1.25;;;1.90;99.90;;;;;;5036553;28;20033;-73
2024/01/12 06:28:28;;;;;;;4.25;2.90;;;1.90;99.90;;;;;;5031357;28;20036;-73
2024/01/12 06:30:53;;;;;;;5.18;1.50;;;1.90;99.90;;;;;;5031079;28;20127;-72
2024/01/12 06:33:19;;;;;;;7.70;3.30;;;2.00;99.90;;;;;;5034300;28;20111;-73
2024/01/12 06:35:45;;;;;;;6.95;2.78;;;2.00;99.90;;;;;;5033140;28;20350;-72
2024/01/12 06:38:11;;;;;;;5.03;3.33;;;2.00;99.90;;;;;;5033884;28;20033;-72
2024/01/12 06:40:40;;;;;;;1.70;1.27;;;2.10;99.90;;;;;;5033706;28;20044;-72
2024/01/12 06:43:06;;;;;;;6.90;2.97;;;2.10;99.90;;;;;;5016988;28;20528;-72
2024/01/12 06:45:31;;;;;;;8.13;3.35;;;2.10;99.90;;;;;;5017784;28;20056;-72
2024/01/12 06:47:57;;;;;;;22.20;6.97;;;2.10;99.90;;;;;;5033439;28;20481;-72
2024/01/12 06:50:23;;;;;;;10.93;5.28;;;2.10;99.90;;;;;;5033883;28;20036;-72
2024/01/12 06:52:49;;;;;;;6.15;2.60;;;2.20;99.90;;;;;;5033686;28;20049;-72
2024/01/12 06:55:15;;;;;;;8.55;2.40;;;2.20;99.90;;;;;;5029684;28;20051;-72
2024/01/12 06:57:43;;;;;;;2.20;1.95;;;2.20;99.90;;;;;;5018175;28;20482;-72
2024/01/12 07:00:10;;;;;;;3.53;2.20;;;2.20;99.90;;;;;;5031921;28;20508;-72
2024/01/12 07:02:35;;;;;;;3.38;1.88;;;2.20;99.90;;;;;;5030131;28;20072;-72
2024/01/12 07:05:02;;;;;;;4.78;2.50;;;2.20;99.90;;;;;;5033891;28;20138;-72
2024/01/12 07:07:27;;;;;;;4.43;2.85;;;2.20;99.90;;;;;;5033303;28;20037;-73
2024/01/12 07:09:53;;;;;;;4.25;2.63;;;2.20;99.90;;;;;;5032834;28;20488;-72
2024/01/12 07:12:19;;;;;;;4.43;3.20;;;2.20;99.90;;;;;;5032371;28;20040;-72
2024/01/12 07:14:45;;;;;;;6.85;2.78;;;2.20;99.90;;;;;;5030120;28;20044;-72
2024/01/12 07:17:10;;;;;;;2.33;1.98;;;2.20;99.90;;;;;;5035174;28;20088;-72
2024/01/12 07:19:36;;;;;;;7.00;2.30;;;2.20;99.90;;;;;;5033810;28;20047;-72
2024/01/12 07:22:02;;;;;;;2.95;1.92;;;2.20;99.90;;;;;;5033315;28;20044;-72
2024/01/12 07:24:28;;;;;;;3.30;1.60;;;2.10;99.90;;;;;;5016891;28;20112;-72
2024/01/12 07:26:54;;;;;;;6.10;2.35;;;2.20;99.90;;;;;;5030934;28;20589;-72
2024/01/12 07:29:22;;;;;;;6.05;2.15;;;2.20;99.90;;;;;;5049107;28;20080;-72
2024/01/12 07:31:49;;;;;;;4.82;1.85;;;2.20;99.90;;;;;;5033301;28;20091;-72
2024/01/12 07:34:17;;;;;;;2.33;1.38;;;2.20;99.90;;;;;;5033304;28;20128;-71
2024/01/12 07:36:43;;;;;;;3.47;1.98;;;2.20;99.90;;;;;;5029966;28;20045;-72
2024/01/12 07:39:10;;;;;;;5.38;2.38;;;2.20;99.90;;;;;;5032770;28;20378;-72
2024/01/12 07:41:36;;;;;;;1.92;1.25;;;2.20;99.90;;;;;;5032711;28;20095;-71
2024/01/12 07:44:02;;;;;;;3.58;1.80;;;2.20;99.90;;;;;;5033843;28;20037;-71
2024/01/12 07:46:28;;;;;;;13.23;2.10;;;2.20;99.90;;;;;;5022724;28;20040;-71
2024/01/12 07:48:56;;;;;;;5.82;1.55;;;2.10;99.90;;;;;;5037217;28;20389;-71
2024/01/12 07:51:22;;;;;;;4.78;1.58;;;2.20;99.90;;;;;;5036946;28;20047;-71
2024/01/12 07:53:48;;;;;;;4.43;2.08;;;2.30;99.90;;;;;;5036379;28;20465;-71
2024/01/12 07:56:14;;;;;;;8.35;1.63;;;2.30;99.90;;;;;;5036949;28;20045;-71
2024/01/12 07:58:40;;;;;;;7.03;2.22;;;2.30;99.90;;;;;;5020221;28;20064;-71
2024/01/12 08:01:13;;;;;;;2.35;1.30;;;2.30;99.90;;;;;;5037020;28;20119;-71
2024/01/12 08:03:39;;;;;;;3.75;1.75;;;2.30;99.90;;;;;;5017387;28;20142;-71
2024/01/12 08:06:05;;;;;;;1.67;1.10;;;2.30;99.90;;;;;;5033031;28;20033;-71
2024/01/12 08:08:31;;;;;;;4.97;1.90;;;2.30;99.90;;;;;;5034529;28;20064;-70
2024/01/12 08:10:57;;;;;;;5.45;2.35;;;2.30;99.90;;;;;;5036129;28;20029;-71
2024/01/12 08:13:24;;;;;;;6.43;2.17;;;2.30;99.90;;;;;;5020593;28;20044;-71
2024/01/12 08:15:50;;;;;;;4.45;1.70;;;2.30;99.90;;;;;;5038022;28;20049;-70
2024/01/12 08:18:16;;;;;;;2.90;1.25;;;2.30;99.90;;;;;;5036147;28;20402;-70
2024/01/12 08:20:42;;;;;;;4.07;1.25;;;2.30;99.90;;;;;;5036442;28;20457;-70
2024/01/12 08:23:08;;;;;;;8.50;1.33;;;2.40;99.90;;;;;;5035835;28;20047;-71
2024/01/12 08:25:34;;;;;;;3.63;1.30;;;2.40;99.90;;;;;;5032767;28;20091;-71
2024/01/12 08:28:00;;;;;;;4.72;1.15;;;2.40;99.90;;;;;;5034120;28;20041;-70
2024/01/12 08:30:25;;;;;;;9.10;1.52;;;2.50;99.90;;;;;;5035827;28;20044;-70
2024/01/12 08:32:51;;;;;;;2.67;1.15;;;2.50;99.90;;;;;;5035825;28;20040;-70
2024/01/12 08:35:18;;;;;;;18.88;1.48;;;2.60;99.90;;;;;;5035013;28;20043;-70
2024/01/12 08:37:43;;;;;;;6.28;0.75;;;2.60;99.90;;;;;;5035984;28;20045;-72
2024/01/12 08:40:10;;;;;;;11.15;0.90;;;2.70;99.90;;;;;;5020030;28;20044;-71
2024/01/12 08:42:37;;;;;;;0.55;0.38;;;2.80;99.90;;;;;;5034833;28;20512;-71
2024/01/12 08:45:04;;;;;;;1.83;0.73;;;2.80;99.90;;;;;;5019368;28;20048;-71
2024/01/12 08:47:30;;;;;;;0.80;0.50;;;2.90;99.90;;;;;;5034155;28;20040;-71
2024/01/12 08:49:55;;;;;;;2.08;0.88;;;3.00;99.90;;;;;;5034253;28;20037;-70
2024/01/12 08:52:21;;;;;;;2.95;0.50;;;3.00;99.90;;;;;;5033306;28;20448;-71
2024/01/12 08:54:47;;;;;;;4.88;0.80;;;3.10;99.90;;;;;;5018204;28;20382;-71
2024/01/12 08:57:13;;;;;;;0.80;0.73;;;3.20;99.90;;;;;;5036018;28;20124;-71
2024/01/12 08:59:38;;;;;;;7.95;0.93;;;3.20;99.90;;;;;;5028282;28;20045;-70
2024/01/12 09:02:04;;;;;;;2.13;0.68;;;3.30;99.90;;;;;;5035928;28;20509;-70
2024/01/12 09:04:31;;;;;;;9.38;1.70;;;3.30;99.90;;;;;;5033548;28;20831;-71
2024/01/12 09:06:57;;;;;;;1.63;0.82;;;3.30;99.90;;;;;;5034986;28;20052;-70
2024/01/12 09:09:23;;;;;;;1.80;0.57;;;3.40;99.90;;;;;;5018369;28;20051;-70
2024/01/12 09:11:49;;;;;;;4.53;1.25;;;3.40;99.90;;;;;;5035684;28;20390;-71
2024/01/12 09:14:15;;;;;;;0.85;0.40;;;3.50;99.90;;;;;;5038123;28;20040;-70
2024/01/12 09:16:41;;;;;;;2.55;1.40;;;3.50;99.90;;;;;;5031156;28;20053;-70
2024/01/12 09:19:08;;;;;;;8.13;1.95;;;3.50;99.90;;;;;;5030784;28;20190;-71
2024/01/12 09:21:33;;;;;;;11.10;2.17;;;3.60;99.90;;;;;;5022628;28;20063;-71
2024/01/12 09:23:59;;;;;;;12.60;1.98;;;3.60;99.90;;;;;;5007136;28;20493;-71
2024/01/12 09:26:26;;;;;;;9.00;2.38;;;3.70;99.90;;;;;;5021914;28;20533;-71
2024/01/12 09:28:52;;;;;;;5.63;1.58;;;3.70;99.90;;;;;;5021679;28;20537;-70
2024/01/12 09:31:18;;;;;;;3.15;1.00;;;3.70;99.90;;;;;;5022051;28;20053;-70
2024/01/12 09:33:44;;;;;;;8.23;1.85;;;3.80;99.90;;;;;;5039200;28;20064;-70
2024/01/12 09:36:09;;;;;;;8.82;2.60;;;3.80;99.90;;;;;;5022234;28;20041;-70
2024/01/12 09:38:35;;;;;;;4.72;3.20;;;3.80;99.90;;;;;;5023250;28;20568;-70
2024/01/12 09:41:02;;;;;;;2.47;1.20;;;3.80;99.90;;;;;;5039151;28;20437;-69
2024/01/12 09:43:29;;;;;;;2.63;1.17;;;3.80;99.90;;;;;;5021695;28;20120;-70
2024/01/12 09:46:02;;;;;;;10.77;2.88;;;3.90;99.90;;;;;;5020030;28;20044;-69
2024/01/12 09:48:29;;;;;;;3.53;1.95;;;3.90;99.90;;;;;;5006770;28;20041;-70
2024/01/12 09:50:56;;;;;;;2.10;1.52;;;3.90;99.90;;;;;;5041021;28;20618;-69
2024/01/12 09:53:22;;;;;;;6.50;0.98;;;4.00;99.90;;;;;;5038786;28;20080;-69
2024/01/12 09:55:49;;;;;;;4.75;0.60;;;4.00;99.90;;;;;;5022827;28;20420;-70
2024/01/12 09:58:18;;;;;;;7.82;1.20;;;4.00;99.90;;;;;;5022295;28;20104;-70
2024/01/12 10:00:47;;;;;;;0.82;0.55;;;4.00;99.90;;;;;;5038861;28;20095;-70
2024/01/12 10:03:14;;;;;;;7.28;0.98;;;4.10;99.90;;;;;;5021700;28;20086;-70
2024/01/12 10:05:41;;;;;;;4.10;0.68;;;4.10;99.90;;;;;;5021034;28;20484;-70
2024/01/12 10:08:07;;;;;;;0.75;0.60;;;4.10;99.90;;;;;;5021309;28;20037;-70
2024/01/12 10:10:33;;;;;;;7.10;1.02;;;4.10;99.90;;;;;;5008056;28;20366;-69
2024/01/12 10:13:02;;;;;;;3.60;0.85;;;4.10;99.90;;;;;;5021119;28;20049;-69
2024/01/12 10:15:29;;;;;;;1.17;0.32;;;4.10;99.90;;;;;;5022781;28;20041;-69
2024/01/12 10:17:56;;;;;;;1.00;0.50;;;4.10;99.90;;;;;;5021122;28;21122;-69
2024/01/12 10:20:22;;;;;;;2.83;0.90;;;4.20;99.90;;;;;;5004606;28;20405;-69
2024/01/12 10:22:58;;;;;;;7.55;1.08;;;4.20;99.90;;;;;;5020431;28;20441;-70
2024/01/12 10:25:24;;;;;;;16.77;1.73;;;4.20;99.90;;;;;;5021090;28;20095;-70
2024/01/12 10:27:59;;;;;;;1.85;0.80;;;4.30;99.90;;;;;;5021463;28;20481;-70
2024/01/12 10:30:29;;;;;;;2.80;1.15;;;4.30;99.90;;;;;;5019174;28;20569;-70
2024/01/12 10:32:55;;;;;;;5.00;1.30;;;4.30;99.90;;;;;;5020319;28;20103;-70
2024/01/12 10:35:21;;;;;;;3.17;1.05;;;4.40;99.90;;;;;;5021279;28;20040;-70
2024/01/12 10:37:48;;;;;;;3.08;1.10;;;4.50;99.90;;;;;;5021986;28;20071;-70
2024/01/12 10:40:17;;;;;;;4.65;1.80;;;4.50;99.90;;;;;;5004597;28;20413;-70
2024/01/12 10:42:51;;;;;;;6.28;2.45;;;4.60;99.90;;;;;;5038850;28;20049;-69
2024/01/12 10:45:21;;;;;;;6.28;1.88;;;4.60;99.90;;;;;;5020553;28;20484;-70
2024/01/12 10:48:06;;;;;;;;;;;4.70;99.90;;;;;;5021131;28;20036;-70
2024/01/12 10:50:42;;;;;;;6.55;1.33;;;4.70;99.90;;;;;;5022596;28;19995;-70
2024/01/12 10:53:52;;;;;;;8.10;1.88;;;4.70;99.90;;;;;;5037214;28;20514;-71
2024/01/12 10:56:19;;;;;;;6.70;2.05;;;4.60;99.90;;;;;;5004213;28;20136;-71
2024/01/12 10:58:48;;;;;;;3.78;1.20;;;4.60;99.90;;;;;;5021997;28;20060;-71
2024/01/12 11:01:14;;;;;;;3.15;1.23;;;4.60;99.90;;;;;;5019817;28;20045;-71
2024/01/12 11:03:43;;;;;;;3.25;1.27;;;4.60;99.90;;;;;;5021866;28;20052;-71
2024/01/12 11:06:11;;;;;;;1.75;0.63;;;4.60;99.90;;;;;;5021615;28;20056;-71
2024/01/12 11:08:37;;;;;;;1.77;0.90;;;4.70;99.90;;;;;;5021091;28;20120;-70
2024/01/12 11:11:05;;;;;;;4.63;1.00;;;4.70;99.90;;;;;;5021618;28;20056;-70
2024/01/12 11:13:32;;;;;;;0.80;0.70;;;4.80;99.90;;;;;;5036633;28;20126;-70
2024/01/12 11:15:59;;;;;;;3.80;0.50;;;4.80;99.90;;;;;;5020239;28;20525;-70
2024/01/12 11:18:27;;;;;;;3.53;0.80;;;4.80;99.90;;;;;;5036490;28;20041;-70
2024/01/12 11:21:03;;;;;;;2.70;0.63;;;4.80;99.90;;;;;;5022113;28;20393;-71
2024/01/12 11:23:37;;;;;;;1.52;1.42;;;4.80;99.90;;;;;;5020769;28;20050;-70
2024/01/12 11:26:03;;;;;;;10.43;0.90;;;4.80;99.90;;;;;;5004717;28;20052;-70
2024/01/12 11:28:37;;;;;;;1.08;0.98;;;4.80;99.90;;;;;;5037071;28;20034;-70
2024/01/12 11:31:03;;;;;;;4.43;0.98;;;4.80;99.90;;;;;;5021472;28;20037;-70
2024/01/12 11:33:31;;;;;;;0.93;0.52;;;4.80;99.90;;;;;;5037965;28;20094;-70
2024/01/12 11:36:02;;;;;;;7.13;1.17;;;4.80;99.90;;;;;;5021036;28;20045;-70
2024/01/12 11:38:39;;;;;;;3.05;1.13;;;4.80;99.90;;;;;;5036518;28;20044;-70
2024/01/12 11:41:12;;;;;;;2.35;0.68;;;4.90;99.90;;;;;;5019845;28;20061;-69
2024/01/12 11:43:38;;;;;;;6.05;1.08;;;4.90;99.90;;;;;;5019666;28;20092;-70
2024/01/12 11:46:05;;;;;;;4.78;0.95;;;5.00;99.90;;;;;;5020289;28;20095;-70
2024/01/12 11:48:32;;;;;;;3.38;0.60;;;5.00;99.90;;;;;;5019466;28;20041;-70
2024/01/12 11:50:59;;;;;;;7.15;1.38;;;5.00;99.90;;;;;;5020896;28;20045;-70
2024/01/12 11:53:25;;;;;;;6.03;1.13;;;5.00;99.90;;;;;;5019895;28;20045;-70
2024/01/12 11:55:51;;;;;;;4.82;1.25;;;5.10;99.90;;;;;;5036247;28;20033;-70
2024/01/12 11:58:17;;;;;;;3.60;1.58;;;5.10;99.90;;;;;;5019977;28;20037;-69
2024/01/12 12:00:48;;;;;;;8.30;1.15;;;5.10;99.90;;;;;;5020528;28;20107;-69
2024/01/12 12:03:14;;;;;;;3.50;2.13;;;5.10;99.90;;;;;;5020078;28;20554;-69
2024/01/12 12:05:41;;;;;;;5.68;2.58;;;5.20;99.90;;;;;;5019471;28;20041;-69
2024/01/12 12:08:06;;;;;;;5.50;2.20;;;5.30;99.90;;;;;;5036318;28;20440;-69
2024/01/12 12:10:32;;;;;;;12.88;4.15;;;5.40;99.90;;;;;;5036115;28;20045;-69
2024/01/12 12:12:58;;;;;;;10.40;3.40;;;5.40;99.90;;;;;;5036648;28;20494;-69
2024/01/12 12:15:25;;;;;;;4.43;1.73;;;5.40;99.90;;;;;;5019441;28;20056;-69
2024/01/12 12:17:53;;;;;;;7.13;2.03;;;5.40;99.90;;;;;;5018890;28;20091;-69
2024/01/12 12:20:19;;;;;;;11.82;2.05;;;5.40;99.90;;;;;;5019100;28;23706;-69
2024/01/12 12:22:46;;;;;;;5.30;0.98;;;5.30;99.90;;;;;;5036833;28;20417;-68
2024/01/12 12:25:16;;;;;;;8.93;1.73;;;5.30;99.90;;;;;;5036453;28;20033;-68
2024/01/12 12:27:43;;;;;;;6.55;2.03;;;5.30;99.90;;;;;;5035517;28;20501;-69
2024/01/12 12:30:15;;;;;;;4.25;1.27;;;5.30;99.90;;;;;;5037492;28;20072;-69
2024/01/12 12:32:42;;;;;;;5.78;1.23;;;5.30;99.90;;;;;;5039919;28;20378;-71
2024/01/12 12:35:19;;;;;;;5.63;1.20;;;5.30;99.90;;;;;;5039856;28;20049;-69
2024/01/12 12:37:48;;;;;;;0.75;0.50;;;5.30;99.90;;;;;;5039957;28;20752;-68
2024/01/12 12:40:16;;;;;;;9.85;0.68;;;5.30;99.90;;;;;;5022984;28;20048;-68
2024/01/12 12:43:07;;;;;;;4.45;0.82;;;5.30;99.90;;;;;;5019928;28;20040;-69
2024/01/12 12:45:33;;;;;;;4.18;0.75;;;5.30;99.90;;;;;;5039131;28;20049;-69
2024/01/12 12:47:59;;;;;;;2.58;0.40;;;5.30;99.90;;;;;;5022455;28;20892;-68
2024/01/12 12:50:25;;;;;;;2.67;0.55;;;5.30;99.90;;;;;;5022355;28;20049;-68
2024/01/12 12:52:51;;;;;;;3.40;0.85;;;5.30;99.90;;;;;;5023122;28;20061;-68
2024/01/12 12:55:18;;;;;;;1.98;0.95;;;5.30;99.90;;;;;;5040659;28;20056;-69